メインページ
METAR-TAF:

METAR-TAF

空港 :

イエローナイフ, ノースウェスト準州, カナダ

イエローナイフ空港

緯度: 62-28N, 経度: 114-27W, 海抜: 205m

現時点の気象観測

当レポートは1時間9分前の10:00(UTC)に作成
北東の風 9kt
気温 8°C
湿度 81%
気圧 1015 hPa
視程: 24.1km
晴天

METAR: CYZF 201000Z 05009KT 15SM SKC 08/05 A2997 RMK SLP158

時間: 05:09 (11:09 UTC)

予報

当レポートは5時間30分前の05:39(UTC)に作成
予報は20日の 06時(UTC)から 21日の 06時(UTC)まで有効
北東の風 5kt
視程: 10km
晴天
20日の 13時(UTC)から 20日の 15時(UTC)まで徐々に
東/北東の風 10kt
20日の 2000時(UTC)から
東/北東の風 10kt
視程: 10km
高度5000ftの千切れ雲あり

TAF: CYZF 200539Z 2006/2106 05005KT P6SM SKC BECMG 2013/2015 06010KT FM202000 06010KT P6SM BKN050 RMK NXT FCST BY 201200Z

4,000以上の空港の気象観測と天気予報(METAR報とTAF報)

利用可能な観測所は地図上に黄色い丸と赤い丸で示す。

丸の上にカーソルを重ねると観測所名を参照できる。

次にクリックすると気象観測と天気予報を参照できる。

マップの切り替え:黒色「×」印の緑ボタンをクリックして拡大、「-」印の緑ボタンをクリックして縮小、緑色の三角印をクリックして隣りの地図に切り替え


METAR-TAF: